sensor_id;sensor_type;location;lat;lon;timestamp;P1;durP1;ratioP1;P2;durP2;ratioP2
52124;SDS011;38119;52.710;6.398;2024-01-30T00:00:11;31.60;;;18.40;;
52124;SDS011;38119;52.710;6.398;2024-01-30T00:02:36;26.13;;;18.80;;
52124;SDS011;38119;52.710;6.398;2024-01-30T00:05:02;28.33;;;17.70;;
52124;SDS011;38119;52.710;6.398;2024-01-30T00:07:28;29.70;;;18.50;;
52124;SDS011;38119;52.710;6.398;2024-01-30T00:09:54;28.80;;;18.05;;
52124;SDS011;38119;52.710;6.398;2024-01-30T00:12:20;28.17;;;18.10;;
52124;SDS011;38119;52.710;6.398;2024-01-30T00:14:45;28.23;;;18.08;;
52124;SDS011;38119;52.710;6.398;2024-01-30T00:17:11;30.17;;;18.58;;
52124;SDS011;38119;52.710;6.398;2024-01-30T00:19:36;31.10;;;18.45;;
52124;SDS011;38119;52.710;6.398;2024-01-30T00:22:02;25.92;;;17.55;;
52124;SDS011;38119;52.710;6.398;2024-01-30T00:24:27;30.10;;;18.80;;
52124;SDS011;38119;52.710;6.398;2024-01-30T00:26:53;26.85;;;17.70;;
52124;SDS011;38119;52.710;6.398;2024-01-30T00:29:18;29.80;;;17.23;;
52124;SDS011;38119;52.710;6.398;2024-01-30T00:31:47;26.75;;;18.25;;
52124;SDS011;38119;52.710;6.398;2024-01-30T00:34:13;26.60;;;17.40;;
52124;SDS011;38119;52.710;6.398;2024-01-30T00:36:38;31.58;;;19.45;;
52124;SDS011;38119;52.710;6.398;2024-01-30T00:39:04;28.67;;;18.52;;
52124;SDS011;38119;52.710;6.398;2024-01-30T00:41:32;27.48;;;18.35;;
52124;SDS011;38119;52.710;6.398;2024-01-30T00:43:57;30.98;;;19.15;;
52124;SDS011;38119;52.710;6.398;2024-01-30T00:46:23;29.48;;;18.27;;
52124;SDS011;38119;52.710;6.398;2024-01-30T00:48:48;30.80;;;18.98;;
52124;SDS011;38119;52.710;6.398;2024-01-30T00:51:14;27.02;;;18.20;;
52124;SDS011;38119;52.710;6.398;2024-01-30T00:53:40;26.50;;;17.60;;
52124;SDS011;38119;52.710;6.398;2024-01-30T00:56:06;28.27;;;17.40;;
52124;SDS011;38119;52.710;6.398;2024-01-30T00:58:32;31.65;;;18.95;;
52124;SDS011;38119;52.710;6.398;2024-01-30T01:00:58;29.85;;;17.85;;
52124;SDS011;38119;52.710;6.398;2024-01-30T01:03:24;26.80;;;17.40;;
52124;SDS011;38119;52.710;6.398;2024-01-30T01:05:49;27.02;;;17.23;;
52124;SDS011;38119;52.710;6.398;2024-01-30T01:08:15;24.63;;;16.70;;
52124;SDS011;38119;52.710;6.398;2024-01-30T01:10:40;26.92;;;17.65;;
52124;SDS011;38119;52.710;6.398;2024-01-30T01:13:06;28.15;;;17.75;;
52124;SDS011;38119;52.710;6.398;2024-01-30T01:15:31;27.88;;;16.83;;
52124;SDS011;38119;52.710;6.398;2024-01-30T01:17:57;27.20;;;17.00;;
52124;SDS011;38119;52.710;6.398;2024-01-30T01:20:23;25.23;;;16.23;;
52124;SDS011;38119;52.710;6.398;2024-01-30T01:22:48;29.95;;;17.15;;
52124;SDS011;38119;52.710;6.398;2024-01-30T01:25:14;28.63;;;16.73;;
52124;SDS011;38119;52.710;6.398;2024-01-30T01:27:40;22.23;;;15.55;;
52124;SDS011;38119;52.710;6.398;2024-01-30T01:30:08;27.75;;;16.83;;
52124;SDS011;38119;52.710;6.398;2024-01-30T01:32:34;24.00;;;15.43;;
52124;SDS011;38119;52.710;6.398;2024-01-30T01:35:01;25.48;;;16.08;;
52124;SDS011;38119;52.710;6.398;2024-01-30T01:37:27;23.48;;;15.85;;
52124;SDS011;38119;52.710;6.398;2024-01-30T01:39:53;24.25;;;16.52;;
52124;SDS011;38119;52.710;6.398;2024-01-30T01:42:18;22.98;;;15.52;;
52124;SDS011;38119;52.710;6.398;2024-01-30T01:44:44;24.50;;;15.45;;
52124;SDS011;38119;52.710;6.398;2024-01-30T01:47:09;23.13;;;15.98;;
52124;SDS011;38119;52.710;6.398;2024-01-30T01:49:35;24.50;;;15.80;;
52124;SDS011;38119;52.710;6.398;2024-01-30T01:52:01;25.48;;;15.95;;
52124;SDS011;38119;52.710;6.398;2024-01-30T01:54:27;23.80;;;15.93;;
52124;SDS011;38119;52.710;6.398;2024-01-30T01:56:54;24.35;;;15.18;;
52124;SDS011;38119;52.710;6.398;2024-01-30T01:59:20;23.10;;;15.50;;
52124;SDS011;38119;52.710;6.398;2024-01-30T02:01:47;23.90;;;16.13;;
52124;SDS011;38119;52.710;6.398;2024-01-30T02:04:14;27.90;;;16.02;;
52124;SDS011;38119;52.710;6.398;2024-01-30T02:06:40;21.92;;;14.30;;
52124;SDS011;38119;52.710;6.398;2024-01-30T02:09:06;22.88;;;15.88;;
52124;SDS011;38119;52.710;6.398;2024-01-30T02:11:32;23.63;;;15.18;;
52124;SDS011;38119;52.710;6.398;2024-01-30T02:14:01;26.30;;;15.98;;
52124;SDS011;38119;52.710;6.398;2024-01-30T02:16:28;22.95;;;15.52;;
52124;SDS011;38119;52.710;6.398;2024-01-30T02:18:55;24.63;;;15.55;;
52124;SDS011;38119;52.710;6.398;2024-01-30T02:21:20;24.48;;;15.52;;
52124;SDS011;38119;52.710;6.398;2024-01-30T02:23:49;21.13;;;15.00;;
52124;SDS011;38119;52.710;6.398;2024-01-30T02:26:17;25.48;;;14.65;;
52124;SDS011;38119;52.710;6.398;2024-01-30T02:28:42;23.25;;;14.82;;
52124;SDS011;38119;52.710;6.398;2024-01-30T02:31:08;23.55;;;14.65;;
52124;SDS011;38119;52.710;6.398;2024-01-30T02:33:34;23.95;;;16.08;;
52124;SDS011;38119;52.710;6.398;2024-01-30T02:35:59;23.30;;;14.95;;
52124;SDS011;38119;52.710;6.398;2024-01-30T02:38:25;24.65;;;16.15;;
52124;SDS011;38119;52.710;6.398;2024-01-30T02:40:51;25.75;;;14.90;;
52124;SDS011;38119;52.710;6.398;2024-01-30T02:43:17;23.92;;;15.50;;
52124;SDS011;38119;52.710;6.398;2024-01-30T02:45:43;23.90;;;15.27;;
52124;SDS011;38119;52.710;6.398;2024-01-30T02:48:08;22.05;;;14.75;;
52124;SDS011;38119;52.710;6.398;2024-01-30T02:50:34;26.70;;;14.82;;
52124;SDS011;38119;52.710;6.398;2024-01-30T02:53:00;23.00;;;14.95;;
52124;SDS011;38119;52.710;6.398;2024-01-30T02:55:25;23.05;;;15.52;;
52124;SDS011;38119;52.710;6.398;2024-01-30T02:57:51;25.25;;;15.38;;
52124;SDS011;38119;52.710;6.398;2024-01-30T03:00:16;29.10;;;16.13;;
52124;SDS011;38119;52.710;6.398;2024-01-30T03:02:44;21.98;;;14.80;;
52124;SDS011;38119;52.710;6.398;2024-01-30T03:05:10;22.65;;;14.95;;
52124;SDS011;38119;52.710;6.398;2024-01-30T03:07:35;28.00;;;15.50;;
52124;SDS011;38119;52.710;6.398;2024-01-30T03:10:01;23.02;;;15.35;;
52124;SDS011;38119;52.710;6.398;2024-01-30T03:12:26;25.60;;;15.57;;
52124;SDS011;38119;52.710;6.398;2024-01-30T03:14:52;24.63;;;15.40;;
52124;SDS011;38119;52.710;6.398;2024-01-30T03:17:17;22.25;;;14.73;;
52124;SDS011;38119;52.710;6.398;2024-01-30T03:19:43;27.00;;;16.38;;
52124;SDS011;38119;52.710;6.398;2024-01-30T03:22:09;28.50;;;15.50;;
52124;SDS011;38119;52.710;6.398;2024-01-30T03:24:34;23.88;;;15.27;;
52124;SDS011;38119;52.710;6.398;2024-01-30T03:27:00;24.25;;;16.00;;
52124;SDS011;38119;52.710;6.398;2024-01-30T03:29:26;24.65;;;16.35;;
52124;SDS011;38119;52.710;6.398;2024-01-30T03:31:51;24.13;;;15.40;;
52124;SDS011;38119;52.710;6.398;2024-01-30T03:34:17;25.15;;;15.63;;
52124;SDS011;38119;52.710;6.398;2024-01-30T03:36:42;21.98;;;15.55;;
52124;SDS011;38119;52.710;6.398;2024-01-30T03:39:08;27.05;;;15.65;;
52124;SDS011;38119;52.710;6.398;2024-01-30T03:41:33;22.70;;;15.48;;
52124;SDS011;38119;52.710;6.398;2024-01-30T03:43:59;22.52;;;14.68;;
52124;SDS011;38119;52.710;6.398;2024-01-30T03:46:25;21.15;;;14.90;;
52124;SDS011;38119;52.710;6.398;2024-01-30T03:48:50;23.25;;;15.70;;
52124;SDS011;38119;52.710;6.398;2024-01-30T03:51:16;23.02;;;15.07;;
52124;SDS011;38119;52.710;6.398;2024-01-30T03:53:42;19.25;;;13.63;;
52124;SDS011;38119;52.710;6.398;2024-01-30T03:56:08;24.17;;;14.82;;
52124;SDS011;38119;52.710;6.398;2024-01-30T03:58:34;27.50;;;15.65;;
52124;SDS011;38119;52.710;6.398;2024-01-30T04:01:00;20.40;;;14.50;;
52124;SDS011;38119;52.710;6.398;2024-01-30T04:03:25;23.40;;;14.23;;
52124;SDS011;38119;52.710;6.398;2024-01-30T04:05:51;20.92;;;14.68;;
52124;SDS011;38119;52.710;6.398;2024-01-30T04:08:17;23.75;;;15.70;;
52124;SDS011;38119;52.710;6.398;2024-01-30T04:10:43;23.20;;;14.52;;
52124;SDS011;38119;52.710;6.398;2024-01-30T04:13:08;22.02;;;13.65;;
52124;SDS011;38119;52.710;6.398;2024-01-30T04:15:34;21.40;;;13.98;;
52124;SDS011;38119;52.710;6.398;2024-01-30T04:18:00;22.40;;;14.02;;
52124;SDS011;38119;52.710;6.398;2024-01-30T04:20:25;21.42;;;14.27;;
52124;SDS011;38119;52.710;6.398;2024-01-30T04:22:51;23.40;;;14.05;;
52124;SDS011;38119;52.710;6.398;2024-01-30T04:25:16;20.63;;;14.32;;
52124;SDS011;38119;52.710;6.398;2024-01-30T04:27:42;20.92;;;13.77;;
52124;SDS011;38119;52.710;6.398;2024-01-30T04:30:08;22.85;;;14.30;;
52124;SDS011;38119;52.710;6.398;2024-01-30T04:32:35;23.80;;;13.77;;
52124;SDS011;38119;52.710;6.398;2024-01-30T04:35:01;23.73;;;15.02;;
52124;SDS011;38119;52.710;6.398;2024-01-30T04:37:26;22.88;;;14.90;;
52124;SDS011;38119;52.710;6.398;2024-01-30T04:39:52;20.40;;;13.55;;
52124;SDS011;38119;52.710;6.398;2024-01-30T04:42:18;25.10;;;13.88;;
52124;SDS011;38119;52.710;6.398;2024-01-30T04:44:43;26.88;;;14.15;;
52124;SDS011;38119;52.710;6.398;2024-01-30T04:47:09;23.85;;;14.57;;
52124;SDS011;38119;52.710;6.398;2024-01-30T04:49:36;22.30;;;13.93;;
52124;SDS011;38119;52.710;6.398;2024-01-30T04:52:06;20.88;;;14.20;;
52124;SDS011;38119;52.710;6.398;2024-01-30T04:54:32;20.70;;;14.20;;
52124;SDS011;38119;52.710;6.398;2024-01-30T04:56:58;19.20;;;13.10;;
52124;SDS011;38119;52.710;6.398;2024-01-30T04:59:24;23.25;;;14.00;;
52124;SDS011;38119;52.710;6.398;2024-01-30T05:01:49;20.33;;;12.95;;
52124;SDS011;38119;52.710;6.398;2024-01-30T05:04:15;19.88;;;13.27;;
52124;SDS011;38119;52.710;6.398;2024-01-30T05:06:40;20.75;;;13.35;;
52124;SDS011;38119;52.710;6.398;2024-01-30T05:09:06;19.40;;;13.43;;
52124;SDS011;38119;52.710;6.398;2024-01-30T05:11:36;23.75;;;14.43;;
52124;SDS011;38119;52.710;6.398;2024-01-30T05:14:03;21.95;;;14.23;;
52124;SDS011;38119;52.710;6.398;2024-01-30T05:16:29;22.13;;;13.02;;
52124;SDS011;38119;52.710;6.398;2024-01-30T05:18:54;21.38;;;13.68;;
52124;SDS011;38119;52.710;6.398;2024-01-30T05:21:20;22.20;;;13.63;;
52124;SDS011;38119;52.710;6.398;2024-01-30T05:23:45;21.45;;;13.82;;
52124;SDS011;38119;52.710;6.398;2024-01-30T05:26:11;20.65;;;13.02;;
52124;SDS011;38119;52.710;6.398;2024-01-30T05:28:36;23.48;;;13.98;;
52124;SDS011;38119;52.710;6.398;2024-01-30T05:31:02;20.25;;;13.50;;
52124;SDS011;38119;52.710;6.398;2024-01-30T05:33:28;25.85;;;13.15;;
52124;SDS011;38119;52.710;6.398;2024-01-30T05:35:54;21.30;;;12.93;;
52124;SDS011;38119;52.710;6.398;2024-01-30T05:38:19;20.50;;;13.30;;
52124;SDS011;38119;52.710;6.398;2024-01-30T05:40:45;20.80;;;13.23;;
52124;SDS011;38119;52.710;6.398;2024-01-30T05:43:11;21.33;;;13.85;;
52124;SDS011;38119;52.710;6.398;2024-01-30T05:45:37;20.25;;;13.15;;
52124;SDS011;38119;52.710;6.398;2024-01-30T05:48:02;21.35;;;13.38;;
52124;SDS011;38119;52.710;6.398;2024-01-30T05:50:28;20.25;;;13.35;;
52124;SDS011;38119;52.710;6.398;2024-01-30T05:52:54;19.75;;;13.23;;
52124;SDS011;38119;52.710;6.398;2024-01-30T05:55:20;20.27;;;13.02;;
52124;SDS011;38119;52.710;6.398;2024-01-30T05:57:45;21.17;;;13.98;;
52124;SDS011;38119;52.710;6.398;2024-01-30T06:00:11;20.27;;;13.05;;
52124;SDS011;38119;52.710;6.398;2024-01-30T06:02:37;24.17;;;13.35;;
52124;SDS011;38119;52.710;6.398;2024-01-30T06:05:03;22.77;;;13.98;;
52124;SDS011;38119;52.710;6.398;2024-01-30T06:07:29;20.10;;;13.43;;
52124;SDS011;38119;52.710;6.398;2024-01-30T06:09:54;19.05;;;12.50;;
52124;SDS011;38119;52.710;6.398;2024-01-30T06:12:20;20.17;;;13.02;;
52124;SDS011;38119;52.710;6.398;2024-01-30T06:14:45;22.67;;;13.23;;
52124;SDS011;38119;52.710;6.398;2024-01-30T06:17:11;21.92;;;13.02;;
52124;SDS011;38119;52.710;6.398;2024-01-30T06:19:37;22.90;;;13.63;;
52124;SDS011;38119;52.710;6.398;2024-01-30T06:22:04;22.25;;;14.07;;
52124;SDS011;38119;52.710;6.398;2024-01-30T06:24:29;22.48;;;13.38;;
52124;SDS011;38119;52.710;6.398;2024-01-30T06:26:55;22.02;;;14.35;;
52124;SDS011;38119;52.710;6.398;2024-01-30T06:29:21;26.50;;;13.40;;
52124;SDS011;38119;52.710;6.398;2024-01-30T06:31:46;23.27;;;13.48;;
52124;SDS011;38119;52.710;6.398;2024-01-30T06:34:12;19.90;;;13.27;;
52124;SDS011;38119;52.710;6.398;2024-01-30T06:36:38;20.73;;;13.40;;
52124;SDS011;38119;52.710;6.398;2024-01-30T06:39:03;18.67;;;13.07;;
52124;SDS011;38119;52.710;6.398;2024-01-30T06:41:29;19.60;;;13.55;;
52124;SDS011;38119;52.710;6.398;2024-01-30T06:43:55;22.33;;;13.57;;
52124;SDS011;38119;52.710;6.398;2024-01-30T06:46:21;22.75;;;13.50;;
52124;SDS011;38119;52.710;6.398;2024-01-30T06:48:47;20.45;;;13.50;;
52124;SDS011;38119;52.710;6.398;2024-01-30T06:51:12;19.13;;;13.30;;
52124;SDS011;38119;52.710;6.398;2024-01-30T06:53:38;22.52;;;13.80;;
52124;SDS011;38119;52.710;6.398;2024-01-30T06:56:04;21.05;;;13.30;;
52124;SDS011;38119;52.710;6.398;2024-01-30T06:58:30;22.25;;;14.25;;
52124;SDS011;38119;52.710;6.398;2024-01-30T07:00:55;20.75;;;13.35;;
52124;SDS011;38119;52.710;6.398;2024-01-30T07:03:21;20.95;;;13.70;;
52124;SDS011;38119;52.710;6.398;2024-01-30T07:05:47;23.10;;;13.25;;
52124;SDS011;38119;52.710;6.398;2024-01-30T07:08:13;21.15;;;13.30;;
52124;SDS011;38119;52.710;6.398;2024-01-30T07:10:42;23.40;;;14.07;;
52124;SDS011;38119;52.710;6.398;2024-01-30T07:13:08;21.88;;;13.63;;
52124;SDS011;38119;52.710;6.398;2024-01-30T07:15:35;21.15;;;13.25;;
52124;SDS011;38119;52.710;6.398;2024-01-30T07:18:01;20.15;;;13.63;;
52124;SDS011;38119;52.710;6.398;2024-01-30T07:20:27;22.13;;;12.57;;
52124;SDS011;38119;52.710;6.398;2024-01-30T07:22:55;21.02;;;13.85;;
52124;SDS011;38119;52.710;6.398;2024-01-30T07:25:21;20.92;;;13.63;;
52124;SDS011;38119;52.710;6.398;2024-01-30T07:27:51;20.92;;;13.68;;
52124;SDS011;38119;52.710;6.398;2024-01-30T07:30:20;21.10;;;12.73;;
52124;SDS011;38119;52.710;6.398;2024-01-30T07:32:46;20.35;;;13.90;;
52124;SDS011;38119;52.710;6.398;2024-01-30T07:35:12;25.05;;;13.55;;
52124;SDS011;38119;52.710;6.398;2024-01-30T07:37:38;22.05;;;13.15;;
52124;SDS011;38119;52.710;6.398;2024-01-30T07:40:04;20.70;;;13.50;;
52124;SDS011;38119;52.710;6.398;2024-01-30T07:42:31;22.15;;;13.50;;
52124;SDS011;38119;52.710;6.398;2024-01-30T07:44:57;22.10;;;13.60;;
52124;SDS011;38119;52.710;6.398;2024-01-30T07:47:23;20.08;;;13.20;;
52124;SDS011;38119;52.710;6.398;2024-01-30T07:49:48;20.63;;;12.68;;
52124;SDS011;38119;52.710;6.398;2024-01-30T07:52:14;22.02;;;13.27;;
52124;SDS011;38119;52.710;6.398;2024-01-30T07:54:39;19.88;;;13.07;;
52124;SDS011;38119;52.710;6.398;2024-01-30T07:57:05;17.75;;;12.15;;
52124;SDS011;38119;52.710;6.398;2024-01-30T07:59:30;18.85;;;13.02;;
52124;SDS011;38119;52.710;6.398;2024-01-30T08:01:56;19.80;;;12.57;;
52124;SDS011;38119;52.710;6.398;2024-01-30T08:04:21;20.00;;;13.05;;
52124;SDS011;38119;52.710;6.398;2024-01-30T08:06:47;17.23;;;12.20;;
52124;SDS011;38119;52.710;6.398;2024-01-30T08:09:13;19.52;;;12.60;;
52124;SDS011;38119;52.710;6.398;2024-01-30T08:11:39;20.83;;;12.77;;
52124;SDS011;38119;52.710;6.398;2024-01-30T08:14:05;18.48;;;12.30;;
52124;SDS011;38119;52.710;6.398;2024-01-30T08:16:30;19.08;;;12.57;;
52124;SDS011;38119;52.710;6.398;2024-01-30T08:18:56;25.35;;;13.15;;
52124;SDS011;38119;52.710;6.398;2024-01-30T08:21:22;21.65;;;12.52;;
52124;SDS011;38119;52.710;6.398;2024-01-30T08:23:48;22.20;;;12.98;;
52124;SDS011;38119;52.710;6.398;2024-01-30T08:26:14;19.08;;;12.38;;
52124;SDS011;38119;52.710;6.398;2024-01-30T08:28:39;20.15;;;13.00;;
52124;SDS011;38119;52.710;6.398;2024-01-30T08:31:05;19.50;;;12.57;;
52124;SDS011;38119;52.710;6.398;2024-01-30T08:33:30;18.80;;;12.30;;
52124;SDS011;38119;52.710;6.398;2024-01-30T08:35:56;18.77;;;11.77;;
52124;SDS011;38119;52.710;6.398;2024-01-30T08:38:22;21.25;;;12.63;;
52124;SDS011;38119;52.710;6.398;2024-01-30T08:40:47;20.95;;;12.50;;
52124;SDS011;38119;52.710;6.398;2024-01-30T08:43:14;18.10;;;11.98;;
52124;SDS011;38119;52.710;6.398;2024-01-30T08:45:40;19.67;;;12.48;;
52124;SDS011;38119;52.710;6.398;2024-01-30T08:48:06;19.25;;;11.55;;
52124;SDS011;38119;52.710;6.398;2024-01-30T08:50:32;22.35;;;12.18;;
52124;SDS011;38119;52.710;6.398;2024-01-30T08:52:58;20.77;;;11.82;;
52124;SDS011;38119;52.710;6.398;2024-01-30T08:55:24;18.30;;;12.18;;
52124;SDS011;38119;52.710;6.398;2024-01-30T08:57:49;19.48;;;12.27;;
52124;SDS011;38119;52.710;6.398;2024-01-30T09:00:15;17.92;;;11.07;;
52124;SDS011;38119;52.710;6.398;2024-01-30T09:02:41;21.60;;;11.40;;
52124;SDS011;38119;52.710;6.398;2024-01-30T09:05:07;17.70;;;11.38;;
52124;SDS011;38119;52.710;6.398;2024-01-30T09:07:32;20.27;;;11.57;;
52124;SDS011;38119;52.710;6.398;2024-01-30T09:09:58;20.83;;;12.40;;
52124;SDS011;38119;52.710;6.398;2024-01-30T09:12:23;20.95;;;11.30;;
52124;SDS011;38119;52.710;6.398;2024-01-30T09:14:49;16.60;;;11.20;;
52124;SDS011;38119;52.710;6.398;2024-01-30T09:17:15;19.17;;;11.48;;
52124;SDS011;38119;52.710;6.398;2024-01-30T09:19:40;20.25;;;11.45;;
52124;SDS011;38119;52.710;6.398;2024-01-30T09:22:06;20.17;;;12.68;;
52124;SDS011;38119;52.710;6.398;2024-01-30T09:24:32;15.65;;;10.73;;
52124;SDS011;38119;52.710;6.398;2024-01-30T09:26:57;20.92;;;11.20;;
52124;SDS011;38119;52.710;6.398;2024-01-30T09:29:23;17.02;;;11.05;;
52124;SDS011;38119;52.710;6.398;2024-01-30T09:31:48;19.20;;;11.68;;
52124;SDS011;38119;52.710;6.398;2024-01-30T09:34:14;19.10;;;11.60;;
52124;SDS011;38119;52.710;6.398;2024-01-30T09:36:39;17.25;;;11.00;;
52124;SDS011;38119;52.710;6.398;2024-01-30T09:39:05;20.15;;;11.50;;
52124;SDS011;38119;52.710;6.398;2024-01-30T09:41:37;19.05;;;11.48;;
52124;SDS011;38119;52.710;6.398;2024-01-30T09:44:10;20.40;;;11.38;;
52124;SDS011;38119;52.710;6.398;2024-01-30T09:46:37;21.42;;;11.90;;
52124;SDS011;38119;52.710;6.398;2024-01-30T09:49:03;18.90;;;10.98;;
52124;SDS011;38119;52.710;6.398;2024-01-30T09:51:31;18.35;;;10.75;;
52124;SDS011;38119;52.710;6.398;2024-01-30T09:53:57;19.40;;;11.43;;
52124;SDS011;38119;52.710;6.398;2024-01-30T09:56:22;20.45;;;11.18;;
52124;SDS011;38119;52.710;6.398;2024-01-30T09:58:48;21.63;;;11.05;;
52124;SDS011;38119;52.710;6.398;2024-01-30T10:01:13;17.90;;;11.32;;
52124;SDS011;38119;52.710;6.398;2024-01-30T10:03:43;20.08;;;11.68;;
52124;SDS011;38119;52.710;6.398;2024-01-30T10:06:09;17.20;;;11.10;;
52124;SDS011;38119;52.710;6.398;2024-01-30T10:08:35;17.40;;;10.88;;
52124;SDS011;38119;52.710;6.398;2024-01-30T10:11:01;19.58;;;10.73;;
52124;SDS011;38119;52.710;6.398;2024-01-30T10:13:28;19.70;;;11.10;;
52124;SDS011;38119;52.710;6.398;2024-01-30T10:15:54;17.27;;;10.80;;
52124;SDS011;38119;52.710;6.398;2024-01-30T10:18:20;18.10;;;11.75;;
52124;SDS011;38119;52.710;6.398;2024-01-30T10:20:47;20.30;;;10.98;;
52124;SDS011;38119;52.710;6.398;2024-01-30T10:23:13;21.63;;;11.80;;
52124;SDS011;38119;52.710;6.398;2024-01-30T10:25:38;18.70;;;11.18;;
52124;SDS011;38119;52.710;6.398;2024-01-30T10:28:04;20.60;;;11.75;;
52124;SDS011;38119;52.710;6.398;2024-01-30T10:30:30;22.10;;;11.70;;
52124;SDS011;38119;52.710;6.398;2024-01-30T10:32:55;22.92;;;11.43;;
52124;SDS011;38119;52.710;6.398;2024-01-30T10:35:21;20.67;;;11.77;;
52124;SDS011;38119;52.710;6.398;2024-01-30T10:37:47;20.60;;;11.18;;
52124;SDS011;38119;52.710;6.398;2024-01-30T10:40:13;31.05;;;11.43;;
52124;SDS011;38119;52.710;6.398;2024-01-30T10:42:43;23.13;;;11.27;;
52124;SDS011;38119;52.710;6.398;2024-01-30T10:45:12;20.85;;;11.57;;
52124;SDS011;38119;52.710;6.398;2024-01-30T10:48:00;19.33;;;11.05;;
52124;SDS011;38119;52.710;6.398;2024-01-30T10:50:25;18.90;;;11.65;;
52124;SDS011;38119;52.710;6.398;2024-01-30T10:52:52;17.42;;;11.25;;
52124;SDS011;38119;52.710;6.398;2024-01-30T10:55:18;20.75;;;11.95;;
52124;SDS011;38119;52.710;6.398;2024-01-30T10:57:46;19.83;;;11.20;;
52124;SDS011;38119;52.710;6.398;2024-01-30T11:00:14;19.45;;;11.70;;
52124;SDS011;38119;52.710;6.398;2024-01-30T11:02:41;18.00;;;11.30;;
52124;SDS011;38119;52.710;6.398;2024-01-30T11:05:09;21.88;;;12.02;;
52124;SDS011;38119;52.710;6.398;2024-01-30T11:07:35;21.15;;;12.05;;
52124;SDS011;38119;52.710;6.398;2024-01-30T11:10:03;20.83;;;12.13;;
52124;SDS011;38119;52.710;6.398;2024-01-30T11:12:33;22.90;;;11.88;;
52124;SDS011;38119;52.710;6.398;2024-01-30T11:15:09;20.20;;;13.20;;
52124;SDS011;38119;52.710;6.398;2024-01-30T11:17:43;21.02;;;12.45;;
52124;SDS011;38119;52.710;6.398;2024-01-30T11:20:15;19.75;;;13.45;;
52124;SDS011;38119;52.710;6.398;2024-01-30T11:22:47;21.35;;;12.98;;
52124;SDS011;38119;52.710;6.398;2024-01-30T11:25:14;21.02;;;12.98;;
52124;SDS011;38119;52.710;6.398;2024-01-30T11:27:41;20.73;;;12.50;;
52124;SDS011;38119;52.710;6.398;2024-01-30T11:30:11;21.52;;;13.20;;
52124;SDS011;38119;52.710;6.398;2024-01-30T11:35:37;23.38;;;12.45;;
52124;SDS011;38119;52.710;6.398;2024-01-30T11:38:05;19.73;;;12.73;;
52124;SDS011;38119;52.710;6.398;2024-01-30T11:40:32;24.17;;;12.70;;
52124;SDS011;38119;52.710;6.398;2024-01-30T11:42:59;18.85;;;12.65;;
52124;SDS011;38119;52.710;6.398;2024-01-30T11:45:28;22.50;;;12.25;;
52124;SDS011;38119;52.710;6.398;2024-01-30T11:47:54;22.17;;;12.15;;
52124;SDS011;38119;52.710;6.398;2024-01-30T11:50:20;20.88;;;11.52;;
52124;SDS011;38119;52.710;6.398;2024-01-30T11:52:47;18.45;;;12.25;;
52124;SDS011;38119;52.710;6.398;2024-01-30T11:55:13;18.20;;;11.10;;
52124;SDS011;38119;52.710;6.398;2024-01-30T11:57:40;18.75;;;11.20;;
52124;SDS011;38119;52.710;6.398;2024-01-30T12:00:06;19.38;;;11.48;;
52124;SDS011;38119;52.710;6.398;2024-01-30T12:02:39;20.30;;;11.68;;
52124;SDS011;38119;52.710;6.398;2024-01-30T12:05:05;17.50;;;10.90;;
52124;SDS011;38119;52.710;6.398;2024-01-30T12:07:31;17.55;;;10.60;;
52124;SDS011;38119;52.710;6.398;2024-01-30T12:09:57;18.33;;;11.45;;
52124;SDS011;38119;52.710;6.398;2024-01-30T12:12:27;17.00;;;11.13;;
52124;SDS011;38119;52.710;6.398;2024-01-30T12:14:53;16.98;;;10.88;;
52124;SDS011;38119;52.710;6.398;2024-01-30T12:17:31;16.38;;;9.98;;
52124;SDS011;38119;52.710;6.398;2024-01-30T12:22:36;17.60;;;9.13;;
52124;SDS011;38119;52.710;6.398;2024-01-30T12:25:13;18.88;;;9.30;;
52124;SDS011;38119;52.710;6.398;2024-01-30T12:27:41;16.15;;;8.57;;
52124;SDS011;38119;52.710;6.398;2024-01-30T12:30:09;16.95;;;8.70;;
52124;SDS011;38119;52.710;6.398;2024-01-30T12:32:36;16.95;;;7.93;;
52124;SDS011;38119;52.710;6.398;2024-01-30T12:35:02;17.25;;;8.20;;
52124;SDS011;38119;52.710;6.398;2024-01-30T12:37:29;17.48;;;8.02;;
52124;SDS011;38119;52.710;6.398;2024-01-30T12:39:55;17.38;;;7.65;;
52124;SDS011;38119;52.710;6.398;2024-01-30T12:42:21;13.23;;;7.10;;
52124;SDS011;38119;52.710;6.398;2024-01-30T12:44:47;14.15;;;6.90;;
52124;SDS011;38119;52.710;6.398;2024-01-30T12:47:14;17.33;;;6.53;;
52124;SDS011;38119;52.710;6.398;2024-01-30T12:49:41;12.25;;;5.78;;
52124;SDS011;38119;52.710;6.398;2024-01-30T12:52:08;13.77;;;5.20;;
52124;SDS011;38119;52.710;6.398;2024-01-30T12:54:34;8.85;;;5.30;;
52124;SDS011;38119;52.710;6.398;2024-01-30T12:56:59;10.57;;;4.93;;
52124;SDS011;38119;52.710;6.398;2024-01-30T12:59:25;13.23;;;5.18;;
52124;SDS011;38119;52.710;6.398;2024-01-30T13:01:51;11.15;;;4.88;;
52124;SDS011;38119;52.710;6.398;2024-01-30T13:04:16;10.35;;;4.63;;
52124;SDS011;38119;52.710;6.398;2024-01-30T13:06:42;12.02;;;5.03;;
52124;SDS011;38119;52.710;6.398;2024-01-30T13:09:07;10.23;;;5.20;;
52124;SDS011;38119;52.710;6.398;2024-01-30T13:11:33;9.73;;;4.97;;
52124;SDS011;38119;52.710;6.398;2024-01-30T13:13:59;12.90;;;6.13;;
52124;SDS011;38119;52.710;6.398;2024-01-30T13:16:25;9.60;;;5.75;;
52124;SDS011;38119;52.710;6.398;2024-01-30T13:18:51;12.48;;;6.18;;
52124;SDS011;38119;52.710;6.398;2024-01-30T13:21:16;10.23;;;5.40;;
52124;SDS011;38119;52.710;6.398;2024-01-30T13:23:42;9.50;;;5.22;;
52124;SDS011;38119;52.710;6.398;2024-01-30T13:26:08;9.93;;;5.75;;
52124;SDS011;38119;52.710;6.398;2024-01-30T13:28:34;13.65;;;5.70;;
52124;SDS011;38119;52.710;6.398;2024-01-30T13:30:59;12.15;;;6.15;;
52124;SDS011;38119;52.710;6.398;2024-01-30T13:33:25;12.35;;;6.55;;
52124;SDS011;38119;52.710;6.398;2024-01-30T13:35:51;12.40;;;6.15;;
52124;SDS011;38119;52.710;6.398;2024-01-30T13:38:17;11.15;;;6.18;;
52124;SDS011;38119;52.710;6.398;2024-01-30T13:40:42;11.13;;;5.85;;
52124;SDS011;38119;52.710;6.398;2024-01-30T13:43:08;8.77;;;4.63;;
52124;SDS011;38119;52.710;6.398;2024-01-30T13:45:33;8.45;;;4.95;;
52124;SDS011;38119;52.710;6.398;2024-01-30T13:47:59;16.10;;;6.03;;
52124;SDS011;38119;52.710;6.398;2024-01-30T13:50:24;10.18;;;5.25;;
52124;SDS011;38119;52.710;6.398;2024-01-30T13:52:50;10.65;;;5.30;;
52124;SDS011;38119;52.710;6.398;2024-01-30T13:55:15;8.80;;;4.63;;
52124;SDS011;38119;52.710;6.398;2024-01-30T13:57:41;8.27;;;3.17;;
52124;SDS011;38119;52.710;6.398;2024-01-30T14:00:07;8.93;;;3.60;;
52124;SDS011;38119;52.710;6.398;2024-01-30T14:02:33;7.85;;;3.42;;
52124;SDS011;38119;52.710;6.398;2024-01-30T14:04:59;5.70;;;2.53;;
52124;SDS011;38119;52.710;6.398;2024-01-30T14:07:25;4.80;;;2.40;;
52124;SDS011;38119;52.710;6.398;2024-01-30T14:09:50;4.75;;;2.05;;
52124;SDS011;38119;52.710;6.398;2024-01-30T14:12:16;7.50;;;1.88;;
52124;SDS011;38119;52.710;6.398;2024-01-30T14:14:42;3.25;;;1.80;;
52124;SDS011;38119;52.710;6.398;2024-01-30T14:17:07;5.28;;;2.05;;
52124;SDS011;38119;52.710;6.398;2024-01-30T14:19:34;3.97;;;1.90;;
52124;SDS011;38119;52.710;6.398;2024-01-30T14:22:00;4.70;;;1.92;;